createdAt,value
2019-03-24T00:00:47.297Z,7.62
2019-03-24T00:01:47.274Z,7.71
2019-03-24T00:02:47.270Z,7.67
2019-03-24T00:03:47.270Z,7.69
2019-03-24T00:04:47.267Z,7.60
2019-03-24T00:05:47.306Z,7.55
2019-03-24T00:06:47.259Z,7.63
2019-03-24T00:07:47.262Z,7.55
2019-03-24T00:08:47.255Z,7.53
2019-03-24T00:09:47.256Z,7.63
2019-03-24T00:10:47.291Z,7.56
2019-03-24T00:11:47.250Z,7.49
2019-03-24T00:12:47.247Z,7.63
2019-03-24T00:13:47.252Z,7.49
2019-03-24T00:14:47.248Z,7.52
2019-03-24T00:15:47.268Z,7.58
2019-03-24T00:16:47.242Z,7.58
2019-03-24T00:17:47.248Z,7.72
2019-03-24T00:18:47.236Z,7.66
2019-03-24T00:19:47.248Z,7.45
2019-03-24T00:20:47.271Z,7.59
2019-03-24T00:21:47.235Z,7.62
2019-03-24T00:22:47.229Z,7.72
2019-03-24T00:23:47.228Z,7.56
2019-03-24T00:24:47.227Z,7.56
2019-03-24T00:25:47.251Z,7.52
2019-03-24T00:26:47.225Z,7.38
2019-03-24T00:27:47.220Z,7.52
2019-03-24T00:28:47.217Z,7.60
2019-03-24T00:29:47.223Z,7.49
2019-03-24T00:30:47.240Z,7.49
2019-03-24T00:31:47.210Z,7.47
2019-03-24T00:32:47.236Z,7.60
2019-03-24T00:33:47.208Z,7.62
2019-03-24T00:34:48.151Z,7.50
2019-03-24T00:35:47.205Z,7.58
2019-03-24T00:36:47.231Z,7.45
2019-03-24T00:37:47.203Z,7.52
2019-03-24T00:38:47.193Z,7.52
2019-03-24T00:39:47.197Z,7.44
2019-03-24T00:40:47.223Z,7.47
2019-03-24T00:41:47.192Z,7.50
2019-03-24T00:42:47.216Z,7.50
2019-03-24T00:43:47.188Z,7.56
2019-03-24T00:44:47.195Z,7.79
2019-03-24T00:45:47.202Z,7.87
2019-03-24T00:46:47.213Z,7.89
2019-03-24T00:47:49.384Z,7.85
2019-03-24T00:48:47.177Z,7.89
2019-03-24T00:49:47.182Z,7.84
2019-03-24T00:50:47.206Z,7.85
2019-03-24T00:51:47.173Z,7.84
2019-03-24T00:52:47.173Z,7.87
2019-03-24T00:53:47.173Z,7.85
2019-03-24T00:54:47.167Z,7.94
2019-03-24T00:55:47.191Z,7.96
2019-03-24T00:56:47.164Z,8.08
2019-03-24T00:57:47.159Z,8.02
2019-03-24T00:58:47.158Z,7.96
2019-03-24T00:59:47.163Z,7.94
2019-03-24T01:00:47.185Z,7.96
2019-03-24T01:01:47.154Z,7.79
2019-03-24T01:02:47.154Z,7.67
2019-03-24T01:03:47.150Z,7.63
2019-03-24T01:04:47.150Z,7.72
2019-03-24T01:05:47.175Z,7.66
2019-03-24T01:06:47.144Z,7.89
2019-03-24T01:07:47.140Z,7.84
2019-03-24T01:08:47.153Z,7.79
2019-03-24T01:09:47.138Z,7.82
2019-03-24T01:10:47.171Z,7.77
2019-03-24T01:11:47.137Z,7.81
2019-03-24T01:12:47.135Z,7.85
2019-03-24T01:13:47.135Z,7.94
2019-03-24T01:14:47.134Z,7.92
2019-03-24T01:15:47.855Z,7.99
2019-03-24T01:16:47.126Z,7.97
2019-03-24T01:17:47.122Z,7.92
2019-03-24T01:18:47.131Z,7.92
2019-03-24T01:19:47.116Z,8.00
2019-03-24T01:20:47.147Z,7.96
2019-03-24T01:21:47.124Z,7.97
2019-03-24T01:22:47.115Z,7.82
2019-03-24T01:23:47.111Z,7.84
2019-03-24T01:24:47.112Z,7.79
2019-03-24T01:25:47.136Z,7.87
2019-03-24T01:26:47.108Z,7.77
2019-03-24T01:27:47.111Z,7.78
2019-03-24T01:28:47.107Z,7.74
2019-03-24T01:29:47.101Z,7.75
2019-03-24T01:30:47.130Z,7.81
2019-03-24T01:31:47.101Z,7.75
2019-03-24T01:32:47.097Z,7.66
2019-03-24T01:33:47.104Z,7.66
2019-03-24T01:34:47.096Z,7.62
2019-03-24T01:35:47.121Z,7.63
2019-03-24T01:36:47.094Z,7.60
2019-03-24T01:37:47.088Z,7.59
2019-03-24T01:38:47.090Z,7.72
2019-03-24T01:39:47.218Z,7.69
2019-03-24T01:40:47.113Z,7.55
2019-03-24T01:41:47.085Z,7.60
2019-03-24T01:42:47.080Z,7.63
2019-03-24T01:43:47.078Z,7.50
2019-03-24T01:44:47.077Z,7.49
2019-03-24T01:45:54.408Z,7.59
2019-03-24T01:46:47.070Z,7.45
2019-03-24T01:47:47.073Z,7.49
2019-03-24T01:48:47.069Z,7.49
2019-03-24T01:49:47.067Z,7.60
2019-03-24T01:50:47.090Z,7.58
2019-03-24T01:51:47.061Z,7.59
2019-03-24T01:52:47.054Z,7.59
2019-03-24T01:53:47.060Z,7.49
2019-03-24T01:54:47.090Z,7.50
2019-03-24T01:55:47.056Z,7.56
2019-03-24T01:56:47.052Z,7.55
2019-03-24T01:57:47.049Z,7.67
2019-03-24T01:58:47.075Z,7.72
2019-03-24T01:59:47.043Z,7.69
2019-03-24T02:00:47.078Z,7.60
2019-03-24T02:01:47.044Z,7.66
2019-03-24T02:02:47.043Z,7.67
2019-03-24T02:03:47.040Z,7.63
2019-03-24T02:04:47.069Z,7.69
2019-03-24T02:05:47.032Z,7.67
2019-03-24T02:06:47.031Z,7.78
2019-03-24T02:07:47.029Z,7.67
2019-03-24T02:08:47.028Z,7.72
2019-03-24T02:09:47.055Z,7.74
2019-03-24T02:10:47.024Z,7.72
2019-03-24T02:11:47.023Z,7.63
2019-03-24T02:12:47.020Z,7.63
2019-03-24T02:13:47.022Z,7.66
2019-03-24T02:14:47.047Z,7.85
2019-03-24T02:15:47.017Z,7.84
2019-03-24T02:16:47.013Z,7.84
2019-03-24T02:17:47.548Z,7.82
2019-03-24T02:18:47.010Z,7.81
2019-03-24T02:19:47.049Z,7.85
2019-03-24T02:20:47.004Z,7.87
2019-03-24T02:21:47.004Z,7.89
2019-03-24T02:22:47.001Z,7.82
2019-03-24T02:23:47.000Z,7.82
2019-03-24T02:24:47.031Z,7.85
2019-03-24T02:25:46.999Z,7.82
2019-03-24T02:26:46.994Z,7.85
2019-03-24T02:27:47.000Z,7.82
2019-03-24T02:28:46.989Z,7.78
2019-03-24T02:29:47.021Z,7.85
2019-03-24T02:30:46.990Z,7.90
2019-03-24T02:31:46.992Z,7.81
2019-03-24T02:32:46.984Z,7.89
2019-03-24T02:33:46.991Z,7.97
2019-03-24T02:34:47.018Z,7.96
2019-03-24T02:35:46.989Z,8.03
2019-03-24T02:36:46.985Z,8.00
2019-03-24T02:37:46.971Z,7.84
2019-03-24T02:38:46.969Z,7.92
2019-03-24T02:39:46.996Z,7.94
2019-03-24T02:40:46.971Z,7.93
2019-03-24T02:41:46.964Z,7.81
2019-03-24T02:42:46.971Z,7.79
2019-03-24T02:43:46.963Z,7.79
2019-03-24T02:44:46.968Z,7.82
2019-03-24T02:45:46.984Z,7.74
2019-03-24T02:46:46.959Z,7.77
2019-03-24T02:47:46.953Z,7.84
2019-03-24T02:48:46.952Z,7.85
2019-03-24T02:49:46.952Z,7.87
2019-03-24T02:50:46.981Z,7.85
2019-03-24T02:51:46.947Z,7.82
2019-03-24T02:52:46.949Z,7.82
2019-03-24T02:53:46.953Z,7.78
2019-03-24T02:54:46.971Z,7.79
2019-03-24T02:55:46.942Z,7.77
2019-03-24T02:56:46.939Z,7.85
2019-03-24T02:57:46.932Z,7.89
2019-03-24T02:58:46.935Z,7.84
2019-03-24T02:59:46.968Z,7.84
2019-03-24T03:00:46.931Z,7.85
2019-03-24T03:01:46.932Z,7.84
2019-03-24T03:02:46.928Z,7.84
2019-03-24T03:03:46.928Z,7.85
2019-03-24T03:04:46.948Z,7.87
2019-03-24T03:05:46.924Z,7.81
2019-03-24T03:06:46.919Z,7.82
2019-03-24T03:07:46.917Z,7.82
2019-03-24T03:08:46.923Z,7.89
2019-03-24T03:09:46.945Z,7.78
2019-03-24T03:10:46.915Z,7.85
2019-03-24T03:11:46.909Z,7.81
2019-03-24T03:12:47.877Z,7.78
2019-03-24T03:13:46.902Z,7.77
2019-03-24T03:14:46.933Z,7.79
2019-03-24T03:15:46.901Z,7.82
2019-03-24T03:16:46.898Z,7.84
2019-03-24T03:17:46.965Z,7.82
2019-03-24T03:18:46.896Z,7.85
2019-03-24T03:19:46.928Z,7.87
2019-03-24T03:20:46.899Z,7.84
2019-03-24T03:21:46.894Z,7.78
2019-03-24T03:22:46.894Z,7.81
2019-03-24T03:23:46.892Z,7.84
2019-03-24T03:24:46.920Z,7.90
2019-03-24T03:25:46.883Z,7.81
2019-03-24T03:26:46.885Z,7.89
2019-03-24T03:27:46.877Z,7.90
2019-03-24T03:28:46.879Z,7.97
2019-03-24T03:29:46.907Z,7.93
2019-03-24T03:30:46.875Z,7.84
2019-03-24T03:31:46.874Z,7.79
2019-03-24T03:32:46.869Z,7.87
2019-03-24T03:33:46.870Z,7.84
2019-03-24T03:34:46.895Z,7.77
2019-03-24T03:35:46.871Z,7.81
2019-03-24T03:36:46.893Z,7.75
2019-03-24T03:37:46.876Z,7.75
2019-03-24T03:38:46.865Z,7.81
2019-03-24T03:39:46.892Z,7.71
2019-03-24T03:40:46.863Z,7.74
2019-03-24T03:41:46.862Z,7.71
2019-03-24T03:42:46.849Z,7.78
2019-03-24T03:43:46.844Z,7.77
2019-03-24T03:44:46.881Z,7.74
2019-03-24T03:45:46.868Z,7.77
2019-03-24T03:46:52.333Z,7.82
2019-03-24T03:47:46.839Z,7.81
2019-03-24T03:48:46.843Z,7.90
2019-03-24T03:49:46.840Z,7.82
2019-03-24T03:50:46.864Z,7.74
2019-03-24T03:51:46.836Z,7.81
2019-03-24T03:52:46.835Z,7.82
2019-03-24T03:53:46.828Z,7.90
2019-03-24T03:54:46.839Z,7.89
2019-03-24T03:55:46.857Z,7.81
2019-03-24T03:56:46.823Z,7.90
2019-03-24T03:57:46.820Z,7.87
2019-03-24T03:58:46.827Z,7.90
2019-03-24T03:59:46.818Z,7.78
2019-03-24T04:00:46.850Z,7.89
2019-03-24T04:01:46.812Z,7.84
2019-03-24T04:02:46.812Z,7.89
2019-03-24T04:03:46.808Z,7.82
2019-03-24T04:04:46.811Z,7.85
2019-03-24T04:05:46.835Z,7.81
2019-03-24T04:06:46.807Z,7.92
2019-03-24T04:07:46.795Z,7.87
2019-03-24T04:08:46.800Z,7.89
2019-03-24T04:09:46.802Z,7.97
2019-03-24T04:10:46.820Z,7.94
2019-03-24T04:11:46.794Z,7.99
2019-03-24T04:12:46.796Z,7.90
2019-03-24T04:13:46.791Z,7.93
2019-03-24T04:14:46.790Z,8.07
2019-03-24T04:15:46.825Z,7.97
2019-03-24T04:16:46.785Z,7.90
2019-03-24T04:17:46.784Z,7.81
2019-03-24T04:18:46.783Z,7.84
2019-03-24T04:19:46.781Z,7.79
2019-03-24T04:20:46.808Z,7.81
2019-03-24T04:21:46.773Z,7.74
2019-03-24T04:22:46.769Z,7.77
2019-03-24T04:23:46.769Z,7.74
2019-03-24T04:24:46.765Z,7.77
2019-03-24T04:25:46.796Z,7.84
2019-03-24T04:26:46.765Z,7.82
2019-03-24T04:27:46.766Z,7.84
2019-03-24T04:28:46.759Z,7.87
2019-03-24T04:29:46.761Z,7.75
2019-03-24T04:30:46.782Z,7.77
2019-03-24T04:31:46.754Z,7.78
2019-03-24T04:32:46.751Z,7.84
2019-03-24T04:33:46.757Z,7.78
2019-03-24T04:34:46.743Z,7.81
2019-03-24T04:35:46.773Z,7.67
2019-03-24T04:36:46.745Z,7.71
2019-03-24T04:37:46.755Z,7.69
2019-03-24T04:38:46.743Z,7.79
2019-03-24T04:39:46.742Z,7.77
2019-03-24T04:40:46.763Z,7.77
2019-03-24T04:41:46.730Z,7.75
2019-03-24T04:42:46.735Z,7.74
2019-03-24T04:43:46.728Z,7.72
2019-03-24T04:44:46.725Z,7.69
2019-03-24T04:45:46.754Z,7.79
2019-03-24T04:46:46.751Z,7.75
2019-03-24T04:47:46.715Z,7.75
2019-03-24T04:48:46.722Z,7.79
2019-03-24T04:49:46.711Z,7.77
2019-03-24T04:50:46.714Z,7.63
2019-03-24T04:51:46.739Z,7.58
2019-03-24T04:52:46.706Z,7.60
2019-03-24T04:53:46.710Z,7.53
2019-03-24T04:54:46.702Z,7.71
2019-03-24T04:55:46.697Z,7.63
2019-03-24T04:56:46.750Z,7.66
2019-03-24T04:57:46.701Z,7.71
2019-03-24T04:58:46.694Z,7.75
2019-03-24T04:59:46.698Z,7.69
2019-03-24T05:00:46.693Z,7.71
2019-03-24T05:01:46.720Z,7.69
2019-03-24T05:02:46.693Z,7.60
2019-03-24T05:03:46.695Z,7.69
2019-03-24T05:04:47.291Z,7.69
2019-03-24T05:05:46.684Z,7.72
2019-03-24T05:06:46.738Z,7.69
2019-03-24T05:07:46.682Z,7.56
2019-03-24T05:08:46.673Z,7.62
2019-03-24T05:09:46.670Z,7.71
2019-03-24T05:10:46.670Z,7.62
2019-03-24T05:11:46.696Z,7.66
2019-03-24T05:12:46.699Z,7.66
2019-03-24T05:13:46.664Z,7.66
2019-03-24T05:14:46.661Z,7.62
2019-03-24T05:15:46.660Z,7.67
2019-03-24T05:16:46.659Z,7.71
2019-03-24T05:17:46.681Z,7.58
2019-03-24T05:18:46.657Z,7.58
2019-03-24T05:19:46.651Z,7.62
2019-03-24T05:20:46.649Z,7.71
2019-03-24T05:21:46.653Z,7.59
2019-03-24T05:22:46.672Z,7.62
2019-03-24T05:23:46.643Z,7.58
2019-03-24T05:24:46.645Z,7.52
2019-03-24T05:25:46.675Z,7.37
2019-03-24T05:26:46.636Z,7.47
2019-03-24T05:27:46.660Z,7.47
2019-03-24T05:28:46.632Z,7.50
2019-03-24T05:29:46.628Z,7.45
2019-03-24T05:30:46.628Z,7.63
2019-03-24T05:31:46.624Z,7.56
2019-03-24T05:32:46.648Z,7.49
2019-03-24T05:33:46.652Z,7.49
2019-03-24T05:34:46.616Z,7.49
2019-03-24T05:35:46.618Z,7.40
2019-03-24T05:36:46.613Z,7.31
2019-03-24T05:37:46.613Z,7.44
2019-03-24T05:38:46.637Z,7.42
2019-03-24T05:39:46.605Z,7.27
2019-03-24T05:40:46.605Z,7.37
2019-03-24T05:41:46.609Z,7.40
2019-03-24T05:42:46.604Z,7.31
2019-03-24T05:43:46.624Z,7.35
2019-03-24T05:44:46.702Z,7.35
2019-03-24T05:45:46.593Z,7.47
2019-03-24T05:46:46.593Z,7.35
2019-03-24T05:47:46.589Z,7.34
2019-03-24T05:48:46.613Z,7.45
2019-03-24T05:49:46.586Z,7.50
2019-03-24T05:50:46.585Z,7.47
2019-03-24T05:51:46.581Z,7.32
2019-03-24T05:52:46.577Z,7.26
2019-03-24T05:53:46.602Z,7.26
2019-03-24T05:54:46.573Z,7.19
2019-03-24T05:55:46.571Z,7.38
2019-03-24T05:56:46.570Z,7.37
2019-03-24T05:57:46.565Z,7.38
2019-03-24T05:58:46.593Z,7.24
2019-03-24T05:59:46.566Z,7.40
2019-03-24T06:00:46.558Z,7.41
2019-03-24T06:01:46.555Z,7.15
2019-03-24T06:02:46.554Z,7.24
2019-03-24T06:03:46.577Z,7.26
2019-03-24T06:04:46.550Z,7.32
2019-03-24T06:05:46.546Z,7.24
2019-03-24T06:06:46.546Z,7.22
2019-03-24T06:07:46.542Z,7.27
2019-03-24T06:08:46.565Z,7.27
2019-03-24T06:09:46.538Z,7.32
2019-03-24T06:10:46.534Z,7.27
2019-03-24T06:11:46.534Z,7.35
2019-03-24T06:12:46.531Z,7.34
2019-03-24T06:13:46.557Z,7.29
2019-03-24T06:14:46.529Z,7.16
2019-03-24T06:15:46.526Z,7.23
2019-03-24T06:16:46.523Z,7.29
2019-03-24T06:17:47.999Z,7.07
2019-03-24T06:18:46.542Z,7.19
2019-03-24T06:19:46.515Z,7.34
2019-03-24T06:20:46.510Z,7.24
2019-03-24T06:21:46.513Z,7.24
2019-03-24T06:22:46.507Z,7.24
2019-03-24T06:23:46.534Z,7.22
2019-03-24T06:24:46.500Z,7.29
2019-03-24T06:25:46.509Z,7.27
2019-03-24T06:26:46.495Z,7.24
2019-03-24T06:27:46.500Z,7.40
2019-03-24T06:28:46.521Z,7.29
2019-03-24T06:29:46.489Z,7.17
2019-03-24T06:30:46.488Z,7.31
2019-03-24T06:31:46.483Z,7.35
2019-03-24T06:32:46.485Z,7.16
2019-03-24T06:33:46.507Z,7.07
2019-03-24T06:34:46.512Z,7.31
2019-03-24T06:35:46.483Z,7.42
2019-03-24T06:36:46.471Z,7.47
2019-03-24T06:37:46.473Z,7.34
2019-03-24T06:38:46.467Z,7.24
2019-03-24T06:39:46.501Z,7.40
2019-03-24T06:40:46.467Z,7.20
2019-03-24T06:41:46.465Z,7.27
2019-03-24T06:42:46.463Z,7.31
2019-03-24T06:43:46.465Z,7.44
2019-03-24T06:44:46.484Z,7.37
2019-03-24T06:45:46.452Z,7.47
2019-03-24T06:46:46.449Z,7.49
2019-03-24T06:47:46.452Z,7.38
2019-03-24T06:48:46.446Z,7.35
2019-03-24T06:49:46.474Z,7.27
2019-03-24T06:50:46.440Z,7.23
2019-03-24T06:51:46.441Z,7.15
2019-03-24T06:52:46.436Z,7.19
2019-03-24T06:53:46.433Z,7.19
2019-03-24T06:54:46.457Z,7.15
2019-03-24T06:55:46.433Z,7.17
2019-03-24T06:56:46.425Z,7.22
2019-03-24T06:57:46.427Z,7.17
2019-03-24T06:58:46.427Z,7.16
2019-03-24T06:59:46.449Z,7.17
2019-03-24T07:00:46.421Z,7.15
2019-03-24T07:01:46.418Z,7.19
2019-03-24T07:02:46.417Z,7.35
2019-03-24T07:03:46.413Z,7.26
2019-03-24T07:04:46.610Z,7.31
2019-03-24T07:05:46.406Z,7.31
2019-03-24T07:06:46.408Z,7.15
2019-03-24T07:07:46.396Z,7.16
2019-03-24T07:08:46.398Z,7.12
2019-03-24T07:09:46.428Z,7.24
2019-03-24T07:10:46.398Z,7.32
2019-03-24T07:11:46.393Z,7.52
2019-03-24T07:12:46.395Z,7.59
2019-03-24T07:13:46.390Z,7.59
2019-03-24T07:14:46.421Z,7.35
2019-03-24T07:15:46.390Z,7.52
2019-03-24T07:16:46.384Z,7.44
2019-03-24T07:17:46.380Z,7.49
2019-03-24T07:18:46.411Z,7.45
2019-03-24T07:19:46.374Z,7.62
2019-03-24T07:20:46.409Z,7.62
2019-03-24T07:21:46.377Z,7.60
2019-03-24T07:22:46.370Z,7.47
2019-03-24T07:23:46.366Z,7.35
2019-03-24T07:24:46.396Z,7.44
2019-03-24T07:25:46.367Z,7.41
2019-03-24T07:26:46.386Z,7.20
2019-03-24T07:27:46.358Z,7.24
2019-03-24T07:28:46.359Z,7.26
2019-03-24T07:29:46.353Z,7.20
2019-03-24T07:30:46.381Z,7.20
2019-03-24T07:31:46.347Z,7.22
2019-03-24T07:32:46.351Z,7.40
2019-03-24T07:33:46.347Z,7.62
2019-03-24T07:34:46.342Z,7.49
2019-03-24T07:35:46.377Z,7.41
2019-03-24T07:36:46.347Z,7.49
2019-03-24T07:37:46.338Z,7.53
2019-03-24T07:38:46.338Z,7.50
2019-03-24T07:39:46.339Z,7.45
2019-03-24T07:40:46.366Z,7.60
2019-03-24T07:41:46.331Z,7.52
2019-03-24T07:42:46.334Z,7.62
2019-03-24T07:43:46.333Z,7.45
2019-03-24T07:44:46.527Z,7.47
2019-03-24T07:45:46.352Z,7.45
2019-03-24T07:46:46.320Z,7.53
2019-03-24T07:47:46.316Z,7.44
2019-03-24T07:48:46.315Z,7.34
2019-03-24T07:49:46.315Z,7.47
2019-03-24T07:50:46.341Z,7.49
2019-03-24T07:51:46.318Z,7.47
2019-03-24T07:52:46.309Z,7.60
2019-03-24T07:53:46.311Z,7.58
2019-03-24T07:54:46.316Z,7.59
2019-03-24T07:55:46.332Z,7.60
2019-03-24T07:56:46.306Z,7.63
2019-03-24T07:57:46.303Z,7.67
2019-03-24T07:58:46.293Z,7.59
2019-03-24T07:59:46.300Z,7.66
2019-03-24T08:00:46.322Z,7.69
2019-03-24T08:01:46.304Z,7.63
2019-03-24T08:02:51.007Z,7.71
2019-03-24T08:03:46.289Z,7.47
2019-03-24T08:04:46.284Z,7.47
2019-03-24T08:05:46.311Z,7.58
2019-03-24T08:06:46.283Z,7.67
2019-03-24T08:07:46.277Z,7.44
2019-03-24T08:08:46.272Z,7.31
2019-03-24T08:09:46.279Z,7.47
2019-03-24T08:10:46.304Z,7.45
2019-03-24T08:11:46.268Z,7.60
2019-03-24T08:12:46.291Z,7.60
2019-03-24T08:13:53.835Z,7.47
2019-03-24T08:14:46.265Z,7.35
2019-03-24T08:15:46.290Z,7.45
2019-03-24T08:16:46.264Z,7.47
2019-03-24T08:17:46.258Z,7.50
2019-03-24T08:18:46.261Z,7.37
2019-03-24T08:19:46.259Z,7.37
2019-03-24T08:20:46.281Z,7.52
2019-03-24T08:21:46.254Z,7.47
2019-03-24T08:22:46.252Z,7.60
2019-03-24T08:23:46.248Z,7.45
2019-03-24T08:24:46.250Z,7.75
2019-03-24T08:25:46.286Z,7.49
2019-03-24T08:26:46.805Z,7.38
2019-03-24T08:27:46.241Z,7.32
2019-03-24T08:28:46.247Z,7.38
2019-03-24T08:29:46.266Z,7.31
2019-03-24T08:30:46.237Z,7.32
2019-03-24T08:31:46.266Z,7.29
2019-03-24T08:32:46.233Z,7.29
2019-03-24T08:33:46.230Z,7.38
2019-03-24T08:34:48.354Z,7.40
2019-03-24T08:35:46.233Z,7.42
2019-03-24T08:36:46.255Z,7.56
2019-03-24T08:37:46.228Z,7.66
2019-03-24T08:38:46.222Z,7.72
2019-03-24T08:39:46.221Z,7.62
2019-03-24T08:40:46.250Z,7.53
2019-03-24T08:41:46.218Z,7.40
2019-03-24T08:42:46.221Z,7.35
2019-03-24T08:43:46.214Z,7.31
2019-03-24T08:44:46.216Z,7.24
2019-03-24T08:45:46.238Z,7.29
2019-03-24T08:46:47.200Z,7.32
2019-03-24T08:47:46.214Z,7.34
2019-03-24T08:48:46.206Z,7.32
2019-03-24T08:49:46.205Z,7.45
2019-03-24T08:50:46.233Z,7.58
2019-03-24T08:51:46.203Z,7.67
2019-03-24T08:52:46.198Z,7.59
2019-03-24T08:53:46.203Z,7.75
2019-03-24T08:54:46.194Z,7.84
2019-03-24T08:55:46.218Z,7.85
2019-03-24T08:56:46.197Z,7.94
2019-03-24T08:57:46.191Z,7.93
2019-03-24T08:58:46.187Z,7.85
2019-03-24T08:59:46.189Z,7.90
2019-03-24T09:00:46.215Z,7.92
2019-03-24T09:01:46.213Z,7.96
2019-03-24T09:02:46.229Z,7.87
2019-03-24T09:03:46.201Z,7.71
2019-03-24T09:04:46.178Z,7.77
2019-03-24T09:05:46.208Z,7.71
2019-03-24T09:06:46.178Z,7.37
2019-03-24T09:07:46.180Z,7.44
2019-03-24T09:08:46.176Z,7.77
2019-03-24T09:09:46.172Z,7.63
2019-03-24T09:10:46.195Z,7.72
2019-03-24T09:11:46.195Z,7.69
2019-03-24T09:12:46.232Z,7.75
2019-03-24T09:13:46.176Z,7.77
2019-03-24T09:14:46.160Z,7.67
2019-03-24T09:15:46.161Z,7.81
2019-03-24T09:16:46.187Z,7.71
2019-03-24T09:17:46.185Z,7.77
2019-03-24T09:18:52.675Z,7.82
2019-03-24T09:19:46.155Z,7.87
2019-03-24T09:20:46.155Z,7.96
2019-03-24T09:21:46.179Z,7.89
2019-03-24T09:22:46.154Z,7.75
2019-03-24T09:23:46.145Z,7.77
2019-03-24T09:24:46.147Z,7.62
2019-03-24T09:25:46.154Z,7.62
2019-03-24T09:26:46.172Z,7.52
2019-03-24T09:27:46.145Z,7.50
2019-03-24T09:28:46.140Z,7.47
2019-03-24T09:29:46.141Z,7.45
2019-03-24T09:30:46.136Z,7.58
2019-03-24T09:31:46.166Z,7.74
2019-03-24T09:32:46.134Z,7.82
2019-03-24T09:33:46.136Z,7.94
2019-03-24T09:34:46.136Z,7.85
2019-03-24T09:35:46.130Z,7.59
2019-03-24T09:36:46.156Z,7.40
2019-03-24T09:37:46.128Z,7.52
2019-03-24T09:38:46.123Z,7.67
2019-03-24T09:39:46.124Z,7.77
2019-03-24T09:40:46.126Z,7.59
2019-03-24T09:41:46.154Z,7.59
2019-03-24T09:42:46.121Z,7.63
2019-03-24T09:43:46.117Z,7.72
2019-03-24T09:44:46.117Z,7.62
2019-03-24T09:45:46.115Z,7.72
2019-03-24T09:46:46.136Z,7.74
2019-03-24T09:47:46.109Z,7.62
2019-03-24T09:48:46.111Z,7.85
2019-03-24T09:49:46.114Z,7.90
2019-03-24T09:50:46.110Z,7.99
2019-03-24T09:51:46.132Z,8.08
2019-03-24T09:52:46.125Z,8.08
2019-03-24T09:53:46.102Z,7.99
2019-03-24T09:54:46.098Z,7.96
2019-03-24T09:55:46.102Z,8.00
2019-03-24T09:56:46.097Z,8.02
2019-03-24T09:57:46.122Z,7.84
2019-03-24T09:58:46.096Z,7.82
2019-03-24T09:59:46.109Z,7.84
2019-03-24T10:00:46.089Z,7.66
2019-03-24T10:01:46.089Z,7.62
2019-03-24T10:02:46.111Z,7.69
2019-03-24T10:03:46.091Z,7.82
2019-03-24T10:04:46.085Z,7.94
2019-03-24T10:05:46.081Z,7.81
2019-03-24T10:06:46.086Z,7.59
2019-03-24T10:07:46.111Z,7.79
2019-03-24T10:08:47.360Z,7.77
2019-03-24T10:09:46.078Z,7.84
2019-03-24T10:10:46.078Z,7.89
2019-03-24T10:11:46.070Z,7.77
2019-03-24T10:12:46.098Z,7.74
2019-03-24T10:13:46.070Z,7.77
2019-03-24T10:14:46.071Z,7.67
2019-03-24T10:15:46.066Z,7.52
2019-03-24T10:16:46.097Z,7.55
2019-03-24T10:17:46.066Z,7.71
2019-03-24T10:18:46.094Z,7.79
2019-03-24T10:19:46.808Z,7.82
2019-03-24T10:20:46.060Z,7.82
2019-03-24T10:21:46.058Z,7.93
2019-03-24T10:22:46.058Z,7.92
2019-03-24T10:23:46.083Z,7.85
2019-03-24T10:24:46.057Z,7.77
2019-03-24T10:25:46.054Z,7.62
2019-03-24T10:26:46.052Z,7.60
2019-03-24T10:27:46.054Z,7.50
2019-03-24T10:28:46.075Z,7.47
2019-03-24T10:29:46.046Z,7.34
2019-03-24T10:30:46.048Z,7.58
2019-03-24T10:31:46.043Z,7.67
2019-03-24T10:32:46.047Z,7.77
2019-03-24T10:33:46.071Z,7.63
2019-03-24T10:34:46.043Z,7.93
2019-03-24T10:35:46.039Z,7.94
2019-03-24T10:36:46.035Z,7.92
2019-03-24T10:37:46.036Z,7.96
2019-03-24T10:38:46.060Z,8.07
2019-03-24T10:39:46.286Z,8.22
2019-03-24T10:40:46.035Z,8.22
2019-03-24T10:41:46.033Z,8.12
2019-03-24T10:42:46.061Z,7.97
2019-03-24T10:43:46.027Z,7.97
2019-03-24T10:44:46.027Z,7.72
2019-03-24T10:45:46.028Z,7.49
2019-03-24T10:46:46.024Z,7.50
2019-03-24T10:47:46.044Z,7.49
2019-03-24T10:48:46.049Z,7.40
2019-03-24T10:49:46.816Z,7.45
2019-03-24T10:50:46.019Z,7.49
2019-03-24T10:51:46.016Z,7.38
2019-03-24T10:52:46.033Z,7.53
2019-03-24T10:53:46.045Z,7.77
2019-03-24T10:54:46.021Z,7.84
2019-03-24T10:55:46.808Z,7.96
2019-03-24T10:56:46.012Z,7.82
2019-03-24T10:57:46.804Z,7.67
2019-03-24T10:58:46.040Z,7.85
2019-03-24T10:59:46.008Z,7.97
2019-03-24T11:00:46.004Z,7.85
2019-03-24T11:01:46.163Z,7.89
2019-03-24T11:02:46.038Z,7.89
2019-03-24T11:03:46.004Z,7.85
2019-03-24T11:04:46.000Z,7.90
2019-03-24T11:05:46.002Z,7.93
2019-03-24T11:06:45.995Z,7.78
2019-03-24T11:07:46.024Z,7.75
2019-03-24T11:08:45.992Z,7.56
2019-03-24T11:09:45.998Z,7.52
2019-03-24T11:10:46.809Z,7.67
2019-03-24T11:11:45.990Z,7.71
2019-03-24T11:12:46.021Z,7.74
2019-03-24T11:13:56.372Z,7.67
2019-03-24T11:14:45.989Z,7.62
2019-03-24T11:15:46.111Z,7.59
2019-03-24T11:16:45.988Z,7.62
2019-03-24T11:17:46.011Z,7.85
2019-03-24T11:18:45.982Z,7.93
2019-03-24T11:19:45.983Z,7.82
2019-03-24T11:20:45.982Z,7.79
2019-03-24T11:21:46.104Z,7.96
2019-03-24T11:22:46.005Z,8.18
2019-03-24T11:23:45.973Z,8.08
2019-03-24T11:24:45.978Z,8.18
2019-03-24T11:25:47.677Z,8.25
2019-03-24T11:26:48.251Z,8.18
2019-03-24T11:27:45.998Z,8.08
2019-03-24T11:28:46.004Z,8.15
2019-03-24T11:29:45.970Z,8.17
2019-03-24T11:30:47.340Z,8.17
2019-03-24T11:31:45.965Z,7.99
2019-03-24T11:32:45.966Z,7.99
2019-03-24T11:33:45.987Z,8.02
2019-03-24T11:34:47.684Z,7.90
2019-03-24T11:35:45.962Z,7.75
2019-03-24T11:36:46.861Z,7.75
2019-03-24T11:37:45.986Z,7.75
2019-03-24T11:38:46.818Z,7.82
2019-03-24T11:39:45.963Z,7.84
2019-03-24T11:40:45.955Z,7.84
2019-03-24T11:41:45.959Z,7.94
2019-03-24T11:42:46.456Z,7.94
2019-03-24T11:43:45.934Z,7.93
2019-03-24T11:44:45.971Z,7.93
2019-03-24T11:45:45.951Z,7.97
2019-03-24T11:46:45.951Z,8.08
2019-03-24T11:47:47.252Z,8.15
2019-03-24T11:48:46.677Z,8.40
2019-03-24T11:49:48.175Z,8.45
2019-03-24T11:50:45.976Z,8.39
2019-03-24T11:51:46.084Z,8.25
2019-03-24T11:52:45.972Z,8.35
2019-03-24T11:53:45.943Z,8.30
2019-03-24T11:54:46.220Z,8.32
2019-03-24T11:55:45.939Z,8.25
2019-03-24T11:56:45.939Z,8.21
2019-03-24T11:57:46.398Z,8.11
2019-03-24T11:58:46.726Z,7.94
2019-03-24T11:59:45.935Z,7.99
2019-03-24T12:00:45.932Z,8.04
2019-03-24T12:01:45.979Z,8.04
2019-03-24T12:02:45.960Z,8.10
2019-03-24T12:03:45.941Z,8.28
2019-03-24T12:04:45.944Z,8.12
2019-03-24T12:05:45.934Z,8.10
2019-03-24T12:06:45.928Z,8.26
2019-03-24T12:07:45.956Z,8.25
2019-03-24T12:08:45.930Z,8.25
2019-03-24T12:09:45.928Z,8.17
2019-03-24T12:10:45.934Z,8.57
2019-03-24T12:11:45.924Z,8.47
2019-03-24T12:12:45.953Z,8.53
2019-03-24T12:13:45.924Z,8.60
2019-03-24T12:14:45.925Z,8.44
2019-03-24T12:15:45.921Z,8.20
2019-03-24T12:16:45.922Z,8.18
2019-03-24T12:17:45.949Z,8.44
2019-03-24T12:18:46.824Z,8.44
2019-03-24T12:19:56.264Z,8.53
2019-03-24T12:20:45.917Z,8.50
2019-03-24T12:21:45.939Z,8.63
2019-03-24T12:22:45.941Z,8.53
2019-03-24T12:23:45.918Z,8.51
2019-03-24T12:24:45.917Z,8.57
2019-03-24T12:25:45.917Z,8.57
2019-03-24T12:26:45.915Z,8.57
2019-03-24T12:27:45.958Z,8.63
2019-03-24T12:28:45.913Z,8.69
2019-03-24T12:29:45.913Z,8.94
2019-03-24T12:30:45.912Z,8.76
2019-03-24T12:31:45.908Z,8.66
2019-03-24T12:32:45.938Z,8.87
2019-03-24T12:33:45.911Z,8.97
2019-03-24T12:34:45.908Z,9.04
2019-03-24T12:35:45.909Z,8.94
2019-03-24T12:36:45.905Z,8.97
2019-03-24T12:37:45.936Z,9.12
2019-03-24T12:38:45.920Z,9.05
2019-03-24T12:39:45.904Z,8.97
2019-03-24T12:40:45.908Z,9.02
2019-03-24T12:41:45.910Z,9.49
2019-03-24T12:42:45.939Z,9.76
2019-03-24T12:43:45.906Z,9.89
2019-03-24T12:44:45.906Z,10.00
2019-03-24T12:45:45.910Z,9.97
2019-03-24T12:46:52.823Z,9.63
2019-03-24T12:47:45.934Z,9.32
2019-03-24T12:48:45.906Z,9.27
2019-03-24T12:49:45.918Z,9.10
2019-03-24T12:50:45.906Z,9.02
2019-03-24T12:51:45.904Z,9.24
2019-03-24T12:52:45.936Z,9.34
2019-03-24T12:53:45.913Z,9.27
2019-03-24T12:54:45.917Z,9.01
2019-03-24T12:55:45.909Z,8.83
2019-03-24T12:56:45.915Z,8.72
2019-03-24T12:57:45.941Z,8.83
2019-03-24T12:58:45.907Z,9.06
2019-03-24T12:59:45.911Z,9.27
2019-03-24T13:00:45.913Z,9.66
2019-03-24T13:01:45.911Z,9.64
2019-03-24T13:02:45.942Z,9.53
2019-03-24T13:03:45.911Z,9.49
2019-03-24T13:04:45.915Z,9.28
2019-03-24T13:05:45.958Z,9.06
2019-03-24T13:06:45.909Z,8.91
2019-03-24T13:07:45.952Z,8.86
2019-03-24T13:08:45.921Z,9.24
2019-03-24T13:09:45.912Z,9.50
2019-03-24T13:10:45.909Z,9.58
2019-03-24T13:11:45.908Z,9.81
2019-03-24T13:12:45.940Z,9.88
2019-03-24T13:13:45.912Z,9.97
2019-03-24T13:14:45.908Z,10.03
2019-03-24T13:15:45.919Z,9.99
2019-03-24T13:16:45.909Z,10.04
2019-03-24T13:17:45.937Z,10.17
2019-03-24T13:18:45.908Z,10.18